sensor_id;sensor_type;location;lat;lon;timestamp;pressure;altitude;pressure_sealevel;temperature
30765;BMP180;494;48.744;10.106;2023-03-14T00:00:08;94165.00;;;10.60
30765;BMP180;494;48.744;10.106;2023-03-14T00:02:38;94139.00;;;10.60
30765;BMP180;494;48.744;10.106;2023-03-14T00:05:08;93899.00;;;10.30
30765;BMP180;494;48.744;10.106;2023-03-14T00:07:39;94279.00;;;10.40
30765;BMP180;494;48.744;10.106;2023-03-14T00:10:11;94316.00;;;10.40
30765;BMP180;494;48.744;10.106;2023-03-14T00:12:41;94337.00;;;10.50
30765;BMP180;494;48.744;10.106;2023-03-14T00:15:12;93781.00;;;10.50
30765;BMP180;494;48.744;10.106;2023-03-14T00:17:43;94024.00;;;9.30
30765;BMP180;494;48.744;10.106;2023-03-14T00:20:12;94426.00;;;10.80
30765;BMP180;494;48.744;10.106;2023-03-14T00:22:41;94300.00;;;9.40
30765;BMP180;494;48.744;10.106;2023-03-14T00:25:12;93959.00;;;10.50
30765;BMP180;494;48.744;10.106;2023-03-14T00:27:40;94279.00;;;10.20
30765;BMP180;494;48.744;10.106;2023-03-14T00:30:11;92973.00;;;10.30
30765;BMP180;494;48.744;10.106;2023-03-14T00:32:40;94193.00;;;10.10
30765;BMP180;494;48.744;10.106;2023-03-14T00:35:09;93174.00;;;10.40
30765;BMP180;494;48.744;10.106;2023-03-14T00:37:37;93050.00;;;10.30
30765;BMP180;494;48.744;10.106;2023-03-14T00:40:08;93579.00;;;10.30
30765;BMP180;494;48.744;10.106;2023-03-14T00:42:36;94283.00;;;7.70
30765;BMP180;494;48.744;10.106;2023-03-14T00:45:06;94249.00;;;10.40
30765;BMP180;494;48.744;10.106;2023-03-14T00:47:37;94299.00;;;10.40
30765;BMP180;494;48.744;10.106;2023-03-14T00:50:07;94088.00;;;10.50
30765;BMP180;494;48.744;10.106;2023-03-14T00:52:37;93804.00;;;10.40
30765;BMP180;494;48.744;10.106;2023-03-14T00:55:06;93374.00;;;10.50
30765;BMP180;494;48.744;10.106;2023-03-14T00:57:35;94140.00;;;10.30
30765;BMP180;494;48.744;10.106;2023-03-14T01:00:05;94152.00;;;10.40
30765;BMP180;494;48.744;10.106;2023-03-14T01:02:36;93076.00;;;10.30
30765;BMP180;494;48.744;10.106;2023-03-14T01:05:06;94079.00;;;10.30
30765;BMP180;494;48.744;10.106;2023-03-14T01:07:34;93881.00;;;9.30
30765;BMP180;494;48.744;10.106;2023-03-14T01:10:05;93970.00;;;10.40
30765;BMP180;494;48.744;10.106;2023-03-14T01:12:33;93171.00;;;10.30
30765;BMP180;494;48.744;10.106;2023-03-14T01:15:03;93911.00;;;10.70
30765;BMP180;494;48.744;10.106;2023-03-14T01:17:32;94093.00;;;10.70
30765;BMP180;494;48.744;10.106;2023-03-14T01:20:02;94160.00;;;10.80
30765;BMP180;494;48.744;10.106;2023-03-14T01:22:32;93827.00;;;8.60
30765;BMP180;494;48.744;10.106;2023-03-14T01:25:01;94124.00;;;11.00
30765;BMP180;494;48.744;10.106;2023-03-14T01:27:31;94009.00;;;10.90
30765;BMP180;494;48.744;10.106;2023-03-14T01:30:02;94117.00;;;10.90
30765;BMP180;494;48.744;10.106;2023-03-14T01:32:31;94162.00;;;7.40
30765;BMP180;494;48.744;10.106;2023-03-14T01:35:02;92548.00;;;9.10
30765;BMP180;494;48.744;10.106;2023-03-14T01:37:31;93654.00;;;11.00
30765;BMP180;494;48.744;10.106;2023-03-14T01:40:00;94110.00;;;10.60
30765;BMP180;494;48.744;10.106;2023-03-14T01:42:30;93775.00;;;10.70
30765;BMP180;494;48.744;10.106;2023-03-14T01:45:01;94008.00;;;10.60
30765;BMP180;494;48.744;10.106;2023-03-14T01:47:30;94221.00;;;9.60
30765;BMP180;494;48.744;10.106;2023-03-14T01:50:03;94221.00;;;9.40
30765;BMP180;494;48.744;10.106;2023-03-14T01:52:37;94110.00;;;10.90
30765;BMP180;494;48.744;10.106;2023-03-14T01:55:14;93511.00;;;10.80
30765;BMP180;494;48.744;10.106;2023-03-14T01:57:46;94199.00;;;6.40
30765;BMP180;494;48.744;10.106;2023-03-14T02:00:20;93829.00;;;10.70
30765;BMP180;494;48.744;10.106;2023-03-14T02:02:54;93530.00;;;10.70
30765;BMP180;494;48.744;10.106;2023-03-14T02:05:30;94040.00;;;10.60
30765;BMP180;494;48.744;10.106;2023-03-14T02:08:05;93770.00;;;10.70
30765;BMP180;494;48.744;10.106;2023-03-14T02:10:39;94102.00;;;10.70
30765;BMP180;494;48.744;10.106;2023-03-14T02:13:10;93923.00;;;10.40
30765;BMP180;494;48.744;10.106;2023-03-14T02:15:40;93967.00;;;10.10
30765;BMP180;494;48.744;10.106;2023-03-14T02:18:10;93658.00;;;10.20
30765;BMP180;494;48.744;10.106;2023-03-14T02:20:50;93903.00;;;8.00
30765;BMP180;494;48.744;10.106;2023-03-14T02:23:29;94039.00;;;10.20
30765;BMP180;494;48.744;10.106;2023-03-14T02:26:04;94015.00;;;10.30
30765;BMP180;494;48.744;10.106;2023-03-14T02:28:35;93759.00;;;10.20
30765;BMP180;494;48.744;10.106;2023-03-14T02:31:05;93927.00;;;10.10
30765;BMP180;494;48.744;10.106;2023-03-14T02:33:38;94024.00;;;10.20
30765;BMP180;494;48.744;10.106;2023-03-14T02:36:11;93877.00;;;8.90
30765;BMP180;494;48.744;10.106;2023-03-14T02:38:47;94055.00;;;10.10
30765;BMP180;494;48.744;10.106;2023-03-14T02:41:21;94033.00;;;10.10
30765;BMP180;494;48.744;10.106;2023-03-14T02:43:51;93845.00;;;10.10
30765;BMP180;494;48.744;10.106;2023-03-14T02:46:21;93186.00;;;10.20
30765;BMP180;494;48.744;10.106;2023-03-14T02:48:54;94026.00;;;10.20
30765;BMP180;494;48.744;10.106;2023-03-14T02:51:26;94034.00;;;10.10
30765;BMP180;494;48.744;10.106;2023-03-14T02:53:55;93709.00;;;4.50
30765;BMP180;494;48.744;10.106;2023-03-14T02:56:24;93769.00;;;10.20
30765;BMP180;494;48.744;10.106;2023-03-14T02:58:54;93996.00;;;10.20
30765;BMP180;494;48.744;10.106;2023-03-14T03:01:25;93794.00;;;10.20
30765;BMP180;494;48.744;10.106;2023-03-14T03:03:54;94079.00;;;10.40
30765;BMP180;494;48.744;10.106;2023-03-14T03:06:22;94156.00;;;10.20
30765;BMP180;494;48.744;10.106;2023-03-14T03:08:51;93978.00;;;10.30
30765;BMP180;494;48.744;10.106;2023-03-14T03:11:20;93559.00;;;9.20
30765;BMP180;494;48.744;10.106;2023-03-14T03:13:48;93328.00;;;10.10
30765;BMP180;494;48.744;10.106;2023-03-14T03:16:18;93673.00;;;10.30
30765;BMP180;494;48.744;10.106;2023-03-14T03:18:47;94018.00;;;10.40
30765;BMP180;494;48.744;10.106;2023-03-14T03:21:15;93611.00;;;10.20
30765;BMP180;494;48.744;10.106;2023-03-14T03:23:44;93851.00;;;10.20
30765;BMP180;494;48.744;10.106;2023-03-14T03:26:13;93951.00;;;10.20
30765;BMP180;494;48.744;10.106;2023-03-14T03:28:42;94081.00;;;10.00
30765;BMP180;494;48.744;10.106;2023-03-14T03:31:12;93648.00;;;10.00
30765;BMP180;494;48.744;10.106;2023-03-14T03:33:41;93788.00;;;10.10
30765;BMP180;494;48.744;10.106;2023-03-14T03:36:10;93283.00;;;8.90
30765;BMP180;494;48.744;10.106;2023-03-14T03:38:39;93283.00;;;9.10
30765;BMP180;494;48.744;10.106;2023-03-14T03:41:08;93915.00;;;10.00
30765;BMP180;494;48.744;10.106;2023-03-14T03:43:36;93927.00;;;10.00
30765;BMP180;494;48.744;10.106;2023-03-14T03:46:06;93119.00;;;10.00
30765;BMP180;494;48.744;10.106;2023-03-14T03:48:35;93976.00;;;8.70
30765;BMP180;494;48.744;10.106;2023-03-14T03:51:06;93922.00;;;10.20
30765;BMP180;494;48.744;10.106;2023-03-14T03:53:35;92975.00;;;8.40
30765;BMP180;494;48.744;10.106;2023-03-14T03:56:04;93814.00;;;9.70
30765;BMP180;494;48.744;10.106;2023-03-14T03:58:33;93845.00;;;9.80
30765;BMP180;494;48.744;10.106;2023-03-14T04:01:01;93287.00;;;10.10
30765;BMP180;494;48.744;10.106;2023-03-14T04:03:30;93538.00;;;8.90
30765;BMP180;494;48.744;10.106;2023-03-14T04:05:59;93932.00;;;9.90
30765;BMP180;494;48.744;10.106;2023-03-14T04:08:30;93896.00;;;7.90
30765;BMP180;494;48.744;10.106;2023-03-14T04:11:01;93447.00;;;10.30
30765;BMP180;494;48.744;10.106;2023-03-14T04:13:30;93356.00;;;10.10
30765;BMP180;494;48.744;10.106;2023-03-14T04:15:59;92977.00;;;10.10
30765;BMP180;494;48.744;10.106;2023-03-14T04:18:28;93548.00;;;10.10
30765;BMP180;494;48.744;10.106;2023-03-14T04:20:58;93791.00;;;10.00
30765;BMP180;494;48.744;10.106;2023-03-14T04:23:26;93628.00;;;8.80
30765;BMP180;494;48.744;10.106;2023-03-14T04:25:56;93063.00;;;9.40
30765;BMP180;494;48.744;10.106;2023-03-14T04:28:25;93551.00;;;10.10
30765;BMP180;494;48.744;10.106;2023-03-14T04:30:54;93982.00;;;10.30
30765;BMP180;494;48.744;10.106;2023-03-14T04:33:23;92980.00;;;9.90
30765;BMP180;494;48.744;10.106;2023-03-14T04:35:54;92809.00;;;7.50
30765;BMP180;494;48.744;10.106;2023-03-14T04:38:23;93960.00;;;10.20
30765;BMP180;494;48.744;10.106;2023-03-14T04:40:51;93949.00;;;10.20
30765;BMP180;494;48.744;10.106;2023-03-14T04:43:21;93184.00;;;10.20
30765;BMP180;494;48.744;10.106;2023-03-14T04:45:50;93663.00;;;10.10
30765;BMP180;494;48.744;10.106;2023-03-14T04:48:18;93766.00;;;10.30
30765;BMP180;494;48.744;10.106;2023-03-14T04:50:47;93902.00;;;10.30
30765;BMP180;494;48.744;10.106;2023-03-14T04:53:17;93896.00;;;10.20
30765;BMP180;494;48.744;10.106;2023-03-14T04:55:48;93125.00;;;10.10
30765;BMP180;494;48.744;10.106;2023-03-14T04:58:17;93892.00;;;9.80
30765;BMP180;494;48.744;10.106;2023-03-14T05:00:48;93454.00;;;10.40
30765;BMP180;494;48.744;10.106;2023-03-14T05:03:18;93700.00;;;10.20
30765;BMP180;494;48.744;10.106;2023-03-14T05:05:47;93888.00;;;10.30
30765;BMP180;494;48.744;10.106;2023-03-14T05:08:15;93816.00;;;10.30
30765;BMP180;494;48.744;10.106;2023-03-14T05:10:44;93896.00;;;10.20
30765;BMP180;494;48.744;10.106;2023-03-14T05:13:12;93870.00;;;10.40
30765;BMP180;494;48.744;10.106;2023-03-14T05:15:41;93588.00;;;10.20
30765;BMP180;494;48.744;10.106;2023-03-14T05:18:11;93374.00;;;10.00
30765;BMP180;494;48.744;10.106;2023-03-14T05:20:39;93855.00;;;9.90
30765;BMP180;494;48.744;10.106;2023-03-14T05:23:08;93889.00;;;8.80
30765;BMP180;494;48.744;10.106;2023-03-14T05:25:36;93611.00;;;9.90
30765;BMP180;494;48.744;10.106;2023-03-14T05:28:05;93004.00;;;10.10
30765;BMP180;494;48.744;10.106;2023-03-14T05:30:34;93072.00;;;9.50
30765;BMP180;494;48.744;10.106;2023-03-14T05:33:03;93231.00;;;9.90
30765;BMP180;494;48.744;10.106;2023-03-14T05:35:33;93411.00;;;8.30
30765;BMP180;494;48.744;10.106;2023-03-14T05:38:01;93826.00;;;10.10
30765;BMP180;494;48.744;10.106;2023-03-14T05:40:30;93634.00;;;10.00
30765;BMP180;494;48.744;10.106;2023-03-14T05:42:58;93690.00;;;10.00
30765;BMP180;494;48.744;10.106;2023-03-14T05:45:27;92790.00;;;9.80
30765;BMP180;494;48.744;10.106;2023-03-14T05:47:55;93833.00;;;9.90
30765;BMP180;494;48.744;10.106;2023-03-14T05:50:24;93543.00;;;7.80
30765;BMP180;494;48.744;10.106;2023-03-14T05:52:54;93824.00;;;9.80
30765;BMP180;494;48.744;10.106;2023-03-14T05:55:22;92613.00;;;9.70
30765;BMP180;494;48.744;10.106;2023-03-14T05:57:52;93594.00;;;10.00
30765;BMP180;494;48.744;10.106;2023-03-14T06:00:22;93439.00;;;9.90
30765;BMP180;494;48.744;10.106;2023-03-14T06:02:50;93898.00;;;10.20
30765;BMP180;494;48.744;10.106;2023-03-14T06:05:19;93896.00;;;10.10
30765;BMP180;494;48.744;10.106;2023-03-14T06:07:47;93492.00;;;10.10
30765;BMP180;494;48.744;10.106;2023-03-14T06:10:17;93636.00;;;8.10
30765;BMP180;494;48.744;10.106;2023-03-14T06:12:46;93176.00;;;10.20
30765;BMP180;494;48.744;10.106;2023-03-14T06:15:17;92708.00;;;10.10
30765;BMP180;494;48.744;10.106;2023-03-14T06:17:45;93590.00;;;10.20
30765;BMP180;494;48.744;10.106;2023-03-14T06:20:14;93257.00;;;10.30
30765;BMP180;494;48.744;10.106;2023-03-14T06:22:42;93273.00;;;10.20
30765;BMP180;494;48.744;10.106;2023-03-14T06:25:11;92955.00;;;10.40
30765;BMP180;494;48.744;10.106;2023-03-14T06:27:41;93846.00;;;10.40
30765;BMP180;494;48.744;10.106;2023-03-14T06:30:11;93810.00;;;10.40
30765;BMP180;494;48.744;10.106;2023-03-14T06:32:39;93512.00;;;10.50
30765;BMP180;494;48.744;10.106;2023-03-14T06:35:08;93221.00;;;10.50
30765;BMP180;494;48.744;10.106;2023-03-14T06:37:37;93432.00;;;10.60
30765;BMP180;494;48.744;10.106;2023-03-14T06:40:07;93784.00;;;10.50
30765;BMP180;494;48.744;10.106;2023-03-14T06:42:36;93244.00;;;10.00
30765;BMP180;494;48.744;10.106;2023-03-14T06:45:08;93468.00;;;10.50
30765;BMP180;494;48.744;10.106;2023-03-14T06:47:36;92935.00;;;10.50
30765;BMP180;494;48.744;10.106;2023-03-14T06:50:07;93711.00;;;10.30
30765;BMP180;494;48.744;10.106;2023-03-14T06:52:36;93810.00;;;10.40
30765;BMP180;494;48.744;10.106;2023-03-14T06:55:06;93809.00;;;10.40
30765;BMP180;494;48.744;10.106;2023-03-14T06:57:34;93802.00;;;10.40
30765;BMP180;494;48.744;10.106;2023-03-14T07:00:09;93768.00;;;10.40
30765;BMP180;494;48.744;10.106;2023-03-14T07:02:38;93426.00;;;9.40
30765;BMP180;494;48.744;10.106;2023-03-14T07:05:10;93574.00;;;10.70
30765;BMP180;494;48.744;10.106;2023-03-14T07:07:38;94070.00;;;10.90
30765;BMP180;494;48.744;10.106;2023-03-14T07:10:08;93816.00;;;11.10
30765;BMP180;494;48.744;10.106;2023-03-14T07:12:37;93726.00;;;10.00
30765;BMP180;494;48.744;10.106;2023-03-14T07:15:08;93395.00;;;10.90
30765;BMP180;494;48.744;10.106;2023-03-14T07:17:45;93637.00;;;11.10
30765;BMP180;494;48.744;10.106;2023-03-14T07:20:16;94016.00;;;11.00
30765;BMP180;494;48.744;10.106;2023-03-14T07:22:47;92824.00;;;11.00
30765;BMP180;494;48.744;10.106;2023-03-14T07:25:17;93758.00;;;11.00
30765;BMP180;494;48.744;10.106;2023-03-14T07:27:46;93443.00;;;11.20
30765;BMP180;494;48.744;10.106;2023-03-14T07:30:17;93702.00;;;11.20
30765;BMP180;494;48.744;10.106;2023-03-14T07:32:45;92791.00;;;11.40
30765;BMP180;494;48.744;10.106;2023-03-14T07:35:14;93497.00;;;11.60
30765;BMP180;494;48.744;10.106;2023-03-14T07:37:43;92805.00;;;11.60
30765;BMP180;494;48.744;10.106;2023-03-14T07:40:12;93046.00;;;11.10
30765;BMP180;494;48.744;10.106;2023-03-14T07:42:43;93869.00;;;11.50
30765;BMP180;494;48.744;10.106;2023-03-14T07:45:11;93764.00;;;11.60
30765;BMP180;494;48.744;10.106;2023-03-14T07:47:42;93968.00;;;11.60
30765;BMP180;494;48.744;10.106;2023-03-14T07:50:11;93276.00;;;12.00
30765;BMP180;494;48.744;10.106;2023-03-14T07:52:39;93215.00;;;12.20
30765;BMP180;494;48.744;10.106;2023-03-14T07:55:09;93664.00;;;12.50
30765;BMP180;494;48.744;10.106;2023-03-14T07:57:37;93310.00;;;12.60
30765;BMP180;494;48.744;10.106;2023-03-14T08:00:08;93769.00;;;13.00
30765;BMP180;494;48.744;10.106;2023-03-14T08:02:37;93892.00;;;13.30
30765;BMP180;494;48.744;10.106;2023-03-14T08:05:08;94159.00;;;13.30
30765;BMP180;494;48.744;10.106;2023-03-14T08:07:37;93841.00;;;13.50
30765;BMP180;494;48.744;10.106;2023-03-14T08:10:08;93828.00;;;13.60
30765;BMP180;494;48.744;10.106;2023-03-14T08:12:37;93368.00;;;13.80
30765;BMP180;494;48.744;10.106;2023-03-14T08:15:06;93644.00;;;13.90
30765;BMP180;494;48.744;10.106;2023-03-14T08:17:35;93818.00;;;13.90
30765;BMP180;494;48.744;10.106;2023-03-14T08:20:07;93785.00;;;13.80
30765;BMP180;494;48.744;10.106;2023-03-14T08:22:39;92849.00;;;14.30
30765;BMP180;494;48.744;10.106;2023-03-14T08:25:08;93653.00;;;14.50
30765;BMP180;494;48.744;10.106;2023-03-14T08:27:37;93888.00;;;14.60
30765;BMP180;494;48.744;10.106;2023-03-14T08:30:09;93835.00;;;14.70
30765;BMP180;494;48.744;10.106;2023-03-14T08:32:38;93831.00;;;15.00
30765;BMP180;494;48.744;10.106;2023-03-14T08:35:15;93036.00;;;14.50
30765;BMP180;494;48.744;10.106;2023-03-14T08:37:44;93716.00;;;15.80
30765;BMP180;494;48.744;10.106;2023-03-14T08:40:14;93705.00;;;16.30
30765;BMP180;494;48.744;10.106;2023-03-14T08:42:44;93935.00;;;17.00
30765;BMP180;494;48.744;10.106;2023-03-14T08:45:15;93905.00;;;17.10
30765;BMP180;494;48.744;10.106;2023-03-14T08:47:45;93668.00;;;17.70
30765;BMP180;494;48.744;10.106;2023-03-14T08:50:15;93215.00;;;17.50
30765;BMP180;494;48.744;10.106;2023-03-14T08:52:44;93927.00;;;17.10
30765;BMP180;494;48.744;10.106;2023-03-14T08:55:13;93868.00;;;17.60
30765;BMP180;494;48.744;10.106;2023-03-14T08:57:42;93723.00;;;15.00
30765;BMP180;494;48.744;10.106;2023-03-14T09:00:12;93785.00;;;18.40
30765;BMP180;494;48.744;10.106;2023-03-14T09:02:42;93830.00;;;18.00
30765;BMP180;494;48.744;10.106;2023-03-14T09:05:12;93124.00;;;18.30
30765;BMP180;494;48.744;10.106;2023-03-14T09:07:43;93659.00;;;15.60
30765;BMP180;494;48.744;10.106;2023-03-14T09:10:12;93205.00;;;18.70
30765;BMP180;494;48.744;10.106;2023-03-14T09:12:41;93228.00;;;18.90
30765;BMP180;494;48.744;10.106;2023-03-14T09:15:11;93143.00;;;18.40
30765;BMP180;494;48.744;10.106;2023-03-14T09:17:42;93258.00;;;17.80
30765;BMP180;494;48.744;10.106;2023-03-14T09:20:11;93961.00;;;17.70
30765;BMP180;494;48.744;10.106;2023-03-14T09:22:45;93870.00;;;18.30
30765;BMP180;494;48.744;10.106;2023-03-14T09:25:14;93958.00;;;18.40
30765;BMP180;494;48.744;10.106;2023-03-14T09:27:43;93305.00;;;16.80
30765;BMP180;494;48.744;10.106;2023-03-14T09:30:13;93861.00;;;17.90
30765;BMP180;494;48.744;10.106;2023-03-14T09:32:42;93829.00;;;16.80
30765;BMP180;494;48.744;10.106;2023-03-14T09:35:10;93262.00;;;16.70
30765;BMP180;494;48.744;10.106;2023-03-14T09:37:39;93760.00;;;16.80
30765;BMP180;494;48.744;10.106;2023-03-14T09:40:15;93733.00;;;16.20
30765;BMP180;494;48.744;10.106;2023-03-14T09:42:44;93827.00;;;16.10
30765;BMP180;494;48.744;10.106;2023-03-14T09:45:23;93801.00;;;16.30
30765;BMP180;494;48.744;10.106;2023-03-14T09:47:52;93588.00;;;15.80
30765;BMP180;494;48.744;10.106;2023-03-14T09:50:30;93896.00;;;15.90
30765;BMP180;494;48.744;10.106;2023-03-14T09:53:06;93209.00;;;15.60
30765;BMP180;494;48.744;10.106;2023-03-14T09:55:39;93157.00;;;15.00
30765;BMP180;494;48.744;10.106;2023-03-14T09:58:12;93824.00;;;15.80
30765;BMP180;494;48.744;10.106;2023-03-14T10:00:41;93780.00;;;16.10
30765;BMP180;494;48.744;10.106;2023-03-14T10:03:31;93443.00;;;14.20
30765;BMP180;494;48.744;10.106;2023-03-14T10:06:00;93901.00;;;16.10
30765;BMP180;494;48.744;10.106;2023-03-14T10:08:29;93937.00;;;16.30
30765;BMP180;494;48.744;10.106;2023-03-14T10:10:59;93188.00;;;14.60
30765;BMP180;494;48.744;10.106;2023-03-14T10:13:28;93938.00;;;14.20
30765;BMP180;494;48.744;10.106;2023-03-14T10:16:02;93298.00;;;16.70
30765;BMP180;494;48.744;10.106;2023-03-14T10:18:33;93089.00;;;15.80
30765;BMP180;494;48.744;10.106;2023-03-14T10:21:07;93820.00;;;16.80
30765;BMP180;494;48.744;10.106;2023-03-14T10:23:44;93217.00;;;17.30
30765;BMP180;494;48.744;10.106;2023-03-14T10:26:23;93818.00;;;17.40
30765;BMP180;494;48.744;10.106;2023-03-14T10:29:02;93617.00;;;19.70
30765;BMP180;494;48.744;10.106;2023-03-14T10:31:48;93634.00;;;20.70
30765;BMP180;494;48.744;10.106;2023-03-14T10:34:24;93674.00;;;21.90
30765;BMP180;494;48.744;10.106;2023-03-14T10:36:56;93185.00;;;22.00
30765;BMP180;494;48.744;10.106;2023-03-14T10:39:37;93914.00;;;20.80
30765;BMP180;494;48.744;10.106;2023-03-14T10:42:21;93800.00;;;19.70
30765;BMP180;494;48.744;10.106;2023-03-14T10:44:57;94156.00;;;18.90
30765;BMP180;494;48.744;10.106;2023-03-14T10:47:28;93751.00;;;18.30
30765;BMP180;494;48.744;10.106;2023-03-14T10:49:57;93836.00;;;17.50
30765;BMP180;494;48.744;10.106;2023-03-14T10:52:48;93954.00;;;16.70
30765;BMP180;494;48.744;10.106;2023-03-14T10:55:39;93909.00;;;16.40
30765;BMP180;494;48.744;10.106;2023-03-14T10:58:25;93353.00;;;13.90
30765;BMP180;494;48.744;10.106;2023-03-14T11:01:27;93797.00;;;15.90
30765;BMP180;494;48.744;10.106;2023-03-14T11:04:06;93820.00;;;16.50
30765;BMP180;494;48.744;10.106;2023-03-14T11:06:44;93804.00;;;16.70
30765;BMP180;494;48.744;10.106;2023-03-14T11:09:25;93948.00;;;16.90
30765;BMP180;494;48.744;10.106;2023-03-14T11:12:13;93971.00;;;16.90
30765;BMP180;494;48.744;10.106;2023-03-14T11:14:54;93873.00;;;17.10
30765;BMP180;494;48.744;10.106;2023-03-14T11:17:32;93834.00;;;18.90
30765;BMP180;494;48.744;10.106;2023-03-14T11:20:27;93764.00;;;19.90
30765;BMP180;494;48.744;10.106;2023-03-14T11:23:12;93895.00;;;21.00
30765;BMP180;494;48.744;10.106;2023-03-14T11:25:50;93858.00;;;21.70
30765;BMP180;494;48.744;10.106;2023-03-14T11:28:29;93856.00;;;21.40
30765;BMP180;494;48.744;10.106;2023-03-14T11:31:12;93217.00;;;22.00
30765;BMP180;494;48.744;10.106;2023-03-14T11:33:51;93762.00;;;18.20
30765;BMP180;494;48.744;10.106;2023-03-14T11:36:30;93273.00;;;18.20
30765;BMP180;494;48.744;10.106;2023-03-14T11:39:00;93777.00;;;18.90
30765;BMP180;494;48.744;10.106;2023-03-14T11:41:34;93677.00;;;18.10
30765;BMP180;494;48.744;10.106;2023-03-14T11:44:16;93544.00;;;16.30
30765;BMP180;494;48.744;10.106;2023-03-14T11:46:52;92832.00;;;17.30
30765;BMP180;494;48.744;10.106;2023-03-14T11:49:34;93980.00;;;16.90
30765;BMP180;494;48.744;10.106;2023-03-14T11:52:13;93312.00;;;16.40
30765;BMP180;494;48.744;10.106;2023-03-14T11:54:50;93792.00;;;16.30
30765;BMP180;494;48.744;10.106;2023-03-14T11:57:22;93894.00;;;16.50
30765;BMP180;494;48.744;10.106;2023-03-14T11:59:58;93761.00;;;14.90
30765;BMP180;494;48.744;10.106;2023-03-14T12:02:45;93682.00;;;15.10
30765;BMP180;494;48.744;10.106;2023-03-14T12:05:50;93563.00;;;13.20
30765;BMP180;494;48.744;10.106;2023-03-14T12:08:42;93699.00;;;14.70
30765;BMP180;494;48.744;10.106;2023-03-14T12:11:30;93372.00;;;14.30
30765;BMP180;494;48.744;10.106;2023-03-14T12:14:01;93776.00;;;14.00
30765;BMP180;494;48.744;10.106;2023-03-14T12:16:37;93905.00;;;14.50
30765;BMP180;494;48.744;10.106;2023-03-14T12:19:39;93493.00;;;14.00
30765;BMP180;494;48.744;10.106;2023-03-14T12:22:28;93921.00;;;14.30
30765;BMP180;494;48.744;10.106;2023-03-14T12:25:04;94029.00;;;11.90
30765;BMP180;494;48.744;10.106;2023-03-14T12:28:16;93921.00;;;13.80
30765;BMP180;494;48.744;10.106;2023-03-14T12:30:46;93936.00;;;12.10
30765;BMP180;494;48.744;10.106;2023-03-14T12:33:28;93610.00;;;13.50
30765;BMP180;494;48.744;10.106;2023-03-14T12:38:58;93846.00;;;13.30
30765;BMP180;494;48.744;10.106;2023-03-14T12:41:38;93440.00;;;12.90
30765;BMP180;494;48.744;10.106;2023-03-14T12:44:39;94055.00;;;12.90
30765;BMP180;494;48.744;10.106;2023-03-14T12:48:00;93902.00;;;12.50
30765;BMP180;494;48.744;10.106;2023-03-14T12:50:36;93248.00;;;12.50
30765;BMP180;494;48.744;10.106;2023-03-14T12:53:46;93914.00;;;12.10
30765;BMP180;494;48.744;10.106;2023-03-14T12:56:27;93698.00;;;12.30
30765;BMP180;494;48.744;10.106;2023-03-14T12:59:35;92628.00;;;12.40
30765;BMP180;494;48.744;10.106;2023-03-14T13:02:27;93655.00;;;8.30
30765;BMP180;494;48.744;10.106;2023-03-14T13:06:44;94211.00;;;7.20
30765;BMP180;494;48.744;10.106;2023-03-14T13:10:39;93420.00;;;12.00
30765;BMP180;494;48.744;10.106;2023-03-14T13:16:18;92375.00;;;11.40
30765;BMP180;494;48.744;10.106;2023-03-14T13:18:17;94159.00;;;7.60
30765;BMP180;494;48.744;10.106;2023-03-14T13:21:05;93926.00;;;9.20
30765;BMP180;494;48.744;10.106;2023-03-14T13:24:03;94267.00;;;6.50
30765;BMP180;494;48.744;10.106;2023-03-14T13:26:43;94254.00;;;10.80
30765;BMP180;494;48.744;10.106;2023-03-14T13:29:23;93155.00;;;10.40
30765;BMP180;494;48.744;10.106;2023-03-14T13:32:19;93955.00;;;10.90
30765;BMP180;494;48.744;10.106;2023-03-14T13:34:56;94169.00;;;7.80
30765;BMP180;494;48.744;10.106;2023-03-14T13:37:27;94092.00;;;10.20
30765;BMP180;494;48.744;10.106;2023-03-14T13:39:59;93127.00;;;10.50
30765;BMP180;494;48.744;10.106;2023-03-14T13:42:29;94204.00;;;10.20
30765;BMP180;494;48.744;10.106;2023-03-14T13:44:59;94292.00;;;8.10
30765;BMP180;494;48.744;10.106;2023-03-14T13:47:30;93463.00;;;10.30
30765;BMP180;494;48.744;10.106;2023-03-14T13:50:01;93423.00;;;7.10
30765;BMP180;494;48.744;10.106;2023-03-14T13:52:35;93300.00;;;9.90
30765;BMP180;494;48.744;10.106;2023-03-14T13:55:14;94407.00;;;10.40
30765;BMP180;494;48.744;10.106;2023-03-14T13:57:45;94168.00;;;8.00
30765;BMP180;494;48.744;10.106;2023-03-14T14:00:21;93904.00;;;10.10
30765;BMP180;494;48.744;10.106;2023-03-14T14:02:51;94324.00;;;9.70
30765;BMP180;494;48.744;10.106;2023-03-14T14:05:22;93397.00;;;10.00
30765;BMP180;494;48.744;10.106;2023-03-14T14:07:51;94060.00;;;7.40
30765;BMP180;494;48.744;10.106;2023-03-14T14:10:22;94168.00;;;10.40
30765;BMP180;494;48.744;10.106;2023-03-14T14:12:55;94370.00;;;11.50
30765;BMP180;494;48.744;10.106;2023-03-14T14:15:29;93902.00;;;14.20
30765;BMP180;494;48.744;10.106;2023-03-14T14:18:07;93677.00;;;12.80
30765;BMP180;494;48.744;10.106;2023-03-14T14:20:44;94257.00;;;11.90
30765;BMP180;494;48.744;10.106;2023-03-14T14:23:18;93165.00;;;10.80
30765;BMP180;494;48.744;10.106;2023-03-14T14:25:53;94155.00;;;10.30
30765;BMP180;494;48.744;10.106;2023-03-14T14:28:27;94261.00;;;5.40
30765;BMP180;494;48.744;10.106;2023-03-14T14:31:17;93451.00;;;7.40
30765;BMP180;494;48.744;10.106;2023-03-14T14:33:55;94124.00;;;9.80
30765;BMP180;494;48.744;10.106;2023-03-14T14:36:30;94022.00;;;9.90
30765;BMP180;494;48.744;10.106;2023-03-14T14:39:04;94222.00;;;9.80
30765;BMP180;494;48.744;10.106;2023-03-14T14:41:40;94340.00;;;9.80
30765;BMP180;494;48.744;10.106;2023-03-14T14:44:13;94165.00;;;11.10
30765;BMP180;494;48.744;10.106;2023-03-14T14:46:44;94195.00;;;9.90
30765;BMP180;494;48.744;10.106;2023-03-14T14:49:19;94542.00;;;11.20
30765;BMP180;494;48.744;10.106;2023-03-14T14:51:50;93834.00;;;11.00
30765;BMP180;494;48.744;10.106;2023-03-14T14:54:34;94300.00;;;10.90
30765;BMP180;494;48.744;10.106;2023-03-14T14:57:06;94355.00;;;10.20
30765;BMP180;494;48.744;10.106;2023-03-14T14:59:43;93802.00;;;10.90
30765;BMP180;494;48.744;10.106;2023-03-14T15:02:34;94171.00;;;8.70
30765;BMP180;494;48.744;10.106;2023-03-14T15:05:08;92891.00;;;10.40